createdAt,value
2018-12-12T00:00:05.712Z,2.93
2018-12-12T00:02:40.169Z,3.20
2018-12-12T00:05:14.695Z,2.70
2018-12-12T00:07:49.089Z,3.10
2018-12-12T00:10:23.456Z,2.57
2018-12-12T00:12:57.807Z,3.50
2018-12-12T00:15:32.281Z,3.37
2018-12-12T00:18:06.560Z,2.97
2018-12-12T00:20:40.791Z,3.00
2018-12-12T00:23:15.120Z,2.50
2018-12-12T00:25:49.543Z,2.93
2018-12-12T00:28:23.780Z,2.77
2018-12-12T00:30:58.089Z,3.33
2018-12-12T00:33:32.356Z,2.63
2018-12-12T00:36:06.676Z,3.40
2018-12-12T00:38:41.109Z,3.20
2018-12-12T00:41:15.373Z,2.90
2018-12-12T00:43:49.688Z,2.70
2018-12-12T00:46:24.028Z,3.27
2018-12-12T00:48:58.505Z,2.73
2018-12-12T00:51:33.354Z,3.30
2018-12-12T00:54:07.747Z,2.90
2018-12-12T00:56:42.074Z,3.33
2018-12-12T00:59:16.446Z,3.90
2018-12-12T01:01:50.716Z,3.60
2018-12-12T01:04:25.006Z,3.60
2018-12-12T01:06:59.501Z,3.37
2018-12-12T01:09:33.833Z,3.10
2018-12-12T01:12:12.637Z,3.00
2018-12-12T01:14:46.805Z,3.07
2018-12-12T01:17:21.197Z,3.10
2018-12-12T01:19:55.406Z,3.00
2018-12-12T01:22:29.684Z,2.77
2018-12-12T01:25:04.100Z,3.13
2018-12-12T01:27:38.388Z,2.90
2018-12-12T01:30:12.874Z,2.80
2018-12-12T01:32:47.152Z,2.77
2018-12-12T01:35:21.376Z,3.57
2018-12-12T01:37:55.904Z,3.63
2018-12-12T01:40:30.273Z,3.13
2018-12-12T01:43:04.644Z,3.00
2018-12-12T01:45:38.973Z,2.93
2018-12-12T01:48:13.361Z,2.77
2018-12-12T01:50:47.611Z,2.93
2018-12-12T01:53:21.912Z,3.20
2018-12-12T01:55:56.322Z,3.37
2018-12-12T01:58:30.707Z,3.03
2018-12-12T02:01:05.147Z,2.57
2018-12-12T02:03:39.356Z,3.07
2018-12-12T02:06:13.804Z,3.40
2018-12-12T02:08:48.060Z,2.90
2018-12-12T02:11:22.322Z,2.97
2018-12-12T02:13:56.775Z,3.17
2018-12-12T02:16:31.603Z,3.20
2018-12-12T02:19:06.319Z,3.07
2018-12-12T02:21:40.622Z,3.50
2018-12-12T02:24:15.083Z,3.47
2018-12-12T02:26:49.383Z,3.00
2018-12-12T02:29:23.769Z,3.40
2018-12-12T02:31:58.063Z,3.20
2018-12-12T02:34:32.350Z,3.17
2018-12-12T02:37:06.963Z,2.97
2018-12-12T02:39:41.340Z,3.40
2018-12-12T02:42:15.496Z,3.40
2018-12-12T02:44:49.909Z,3.43
2018-12-12T02:47:24.168Z,3.63
2018-12-12T02:49:58.297Z,3.30
2018-12-12T02:52:32.699Z,3.30
2018-12-12T02:55:07.072Z,3.13
2018-12-12T02:57:41.279Z,3.30
2018-12-12T03:00:15.633Z,2.80
2018-12-12T03:02:50.011Z,3.43
2018-12-12T03:05:24.339Z,3.10
2018-12-12T03:07:58.496Z,3.00
2018-12-12T03:10:32.699Z,3.13
2018-12-12T03:13:07.138Z,3.40
2018-12-12T03:15:41.382Z,3.30
2018-12-12T03:18:15.713Z,3.87
2018-12-12T03:20:49.911Z,3.50
2018-12-12T03:23:24.149Z,3.17
2018-12-12T03:25:58.536Z,3.23
2018-12-12T03:28:32.871Z,3.40
2018-12-12T03:31:07.173Z,3.33
2018-12-12T03:33:41.624Z,3.50
2018-12-12T03:36:16.084Z,3.10
2018-12-12T03:38:50.505Z,3.00
2018-12-12T03:41:24.720Z,3.57
2018-12-12T03:43:59.072Z,3.50
2018-12-12T03:46:33.434Z,3.90
2018-12-12T03:49:07.824Z,3.57
2018-12-12T03:51:42.082Z,3.40
2018-12-12T03:54:16.408Z,3.30
2018-12-12T03:56:50.708Z,3.67
2018-12-12T03:59:25.009Z,3.30
2018-12-12T04:01:59.239Z,3.50
2018-12-12T04:04:33.492Z,3.67
2018-12-12T04:07:07.732Z,3.90
2018-12-12T04:09:42.092Z,3.90
2018-12-12T04:12:16.475Z,3.93
2018-12-12T04:14:50.800Z,4.03
2018-12-12T04:17:24.970Z,3.60
2018-12-12T04:19:59.276Z,4.27
2018-12-12T04:22:33.848Z,3.80
2018-12-12T04:25:08.806Z,3.57
2018-12-12T04:27:43.145Z,3.90
2018-12-12T04:30:17.464Z,3.83
2018-12-12T04:32:51.701Z,3.77
2018-12-12T04:35:26.104Z,3.87
2018-12-12T04:38:00.438Z,3.60
2018-12-12T04:40:34.965Z,3.53
2018-12-12T04:43:09.192Z,3.90
2018-12-12T04:45:43.288Z,3.53
2018-12-12T04:48:17.709Z,3.60
2018-12-12T04:50:51.952Z,3.77
2018-12-12T04:53:26.394Z,3.53
2018-12-12T04:56:00.807Z,3.30
2018-12-12T04:58:35.135Z,3.67
2018-12-12T05:01:09.444Z,4.27
2018-12-12T05:03:43.713Z,4.55
2018-12-12T05:06:18.220Z,3.70
2018-12-12T05:08:52.452Z,3.77
2018-12-12T05:11:26.796Z,3.80
2018-12-12T05:14:01.276Z,3.80
2018-12-12T05:16:35.616Z,3.67
2018-12-12T05:19:09.912Z,3.90
2018-12-12T05:21:44.393Z,3.80
2018-12-12T05:24:18.673Z,4.67
2018-12-12T05:26:52.971Z,5.50
2018-12-12T05:29:27.257Z,16.80
2018-12-12T05:32:01.528Z,6.57
2018-12-12T05:34:35.785Z,4.43
2018-12-12T05:37:10.111Z,4.13
2018-12-12T05:39:44.497Z,3.80
2018-12-12T05:42:18.848Z,4.17
2018-12-12T05:44:53.113Z,4.03
2018-12-12T05:47:27.333Z,4.20
2018-12-12T05:50:01.556Z,3.40
2018-12-12T05:52:35.867Z,4.00
2018-12-12T05:55:10.264Z,3.83
2018-12-12T05:57:44.568Z,3.90
2018-12-12T06:00:18.999Z,3.80
2018-12-12T06:02:53.381Z,4.07
2018-12-12T06:05:27.633Z,4.23
2018-12-12T06:08:01.996Z,4.47
2018-12-12T06:10:36.277Z,4.40
2018-12-12T06:13:10.517Z,3.90
2018-12-12T06:15:44.865Z,4.03
2018-12-12T06:18:19.184Z,4.50
2018-12-12T06:20:53.341Z,4.20
2018-12-12T06:23:27.677Z,4.07
2018-12-12T06:26:02.004Z,3.97
2018-12-12T06:28:36.377Z,3.97
2018-12-12T06:31:10.744Z,3.93
2018-12-12T06:33:45.131Z,3.93
2018-12-12T06:36:20.489Z,4.23
2018-12-12T06:38:54.960Z,4.00
2018-12-12T06:41:29.344Z,4.60
2018-12-12T06:44:03.779Z,4.07
2018-12-12T06:46:37.979Z,3.80
2018-12-12T06:49:12.264Z,4.33
2018-12-12T06:51:46.695Z,4.00
2018-12-12T06:54:20.897Z,4.20
2018-12-12T06:56:55.096Z,3.87
2018-12-12T06:59:29.522Z,3.90
2018-12-12T07:02:03.964Z,4.43
2018-12-12T07:04:38.402Z,4.93
2018-12-12T07:07:13.016Z,4.17
2018-12-12T07:09:47.236Z,3.80
2018-12-12T07:12:21.556Z,4.77
2018-12-12T07:14:55.719Z,4.43
2018-12-12T07:17:30.026Z,4.67
2018-12-12T07:20:04.563Z,4.73
2018-12-12T07:22:38.752Z,4.33
2018-12-12T07:25:13.181Z,3.90
2018-12-12T07:27:47.364Z,3.83
2018-12-12T07:30:21.631Z,4.20
2018-12-12T07:32:56.021Z,3.80
2018-12-12T07:35:30.586Z,4.10
2018-12-12T07:38:05.101Z,3.73
2018-12-12T07:40:39.357Z,4.10
2018-12-12T07:43:13.616Z,4.73
2018-12-12T07:45:47.993Z,4.10
2018-12-12T07:48:22.336Z,3.90
2018-12-12T07:50:56.778Z,4.50
2018-12-12T07:53:31.072Z,4.23
2018-12-12T07:56:05.353Z,4.97
2018-12-12T07:58:39.613Z,4.47
2018-12-12T08:01:13.790Z,4.27
2018-12-12T08:03:50.334Z,3.97
2018-12-12T08:06:24.639Z,3.87
2018-12-12T08:08:59.001Z,4.80
2018-12-12T08:11:33.428Z,4.57
2018-12-12T08:14:07.867Z,4.60
2018-12-12T08:16:42.324Z,4.23
2018-12-12T08:19:16.596Z,4.33
2018-12-12T08:21:50.911Z,4.37
2018-12-12T08:24:25.085Z,4.50
2018-12-12T08:26:59.608Z,4.63
2018-12-12T08:29:33.860Z,4.50
2018-12-12T08:32:08.284Z,4.47
2018-12-12T08:34:42.702Z,4.27
2018-12-12T08:37:17.145Z,4.20
2018-12-12T08:39:51.332Z,4.77
2018-12-12T08:42:25.624Z,4.33
2018-12-12T08:44:59.961Z,4.30
2018-12-12T08:47:34.291Z,4.10
2018-12-12T08:50:09.208Z,4.60
2018-12-12T08:52:43.423Z,4.37
2018-12-12T08:55:18.030Z,4.73
2018-12-12T08:57:52.596Z,4.53
2018-12-12T09:00:27.037Z,4.57
2018-12-12T09:03:01.408Z,4.30
2018-12-12T09:05:35.673Z,4.27
2018-12-12T09:08:09.966Z,4.63
2018-12-12T09:10:44.350Z,4.60
2018-12-12T09:13:18.665Z,4.90
2018-12-12T09:15:52.884Z,4.53
2018-12-12T09:18:27.205Z,4.70
2018-12-12T09:21:01.440Z,5.00
2018-12-12T09:23:35.669Z,4.57
2018-12-12T09:26:10.018Z,5.23
2018-12-12T09:28:44.273Z,4.33
2018-12-12T09:31:18.605Z,4.73
2018-12-12T09:33:52.955Z,5.20
2018-12-12T09:36:27.112Z,4.80
2018-12-12T09:39:01.356Z,4.70
2018-12-12T09:41:35.713Z,4.83
2018-12-12T09:44:10.049Z,5.57
2018-12-12T09:46:44.257Z,5.07
2018-12-12T09:49:18.659Z,4.70
2018-12-12T09:51:53.854Z,5.13
2018-12-12T09:54:28.200Z,4.97
2018-12-12T09:57:02.348Z,5.50
2018-12-12T09:59:36.612Z,4.57
2018-12-12T10:02:10.914Z,4.93
2018-12-12T10:04:45.227Z,4.30
2018-12-12T10:07:19.519Z,4.73
2018-12-12T10:09:53.828Z,5.20
2018-12-12T10:12:28.192Z,4.87
2018-12-12T10:15:02.582Z,5.10
2018-12-12T10:17:36.841Z,5.20
2018-12-12T10:20:11.243Z,4.53
2018-12-12T10:22:45.612Z,5.00
2018-12-12T10:25:20.106Z,4.60
2018-12-12T10:27:54.423Z,5.10
2018-12-12T10:30:28.774Z,4.67
2018-12-12T10:36:05.792Z,3.97
2018-12-12T10:38:40.026Z,4.63
2018-12-12T10:41:14.353Z,4.77
2018-12-12T10:43:48.781Z,4.60
2018-12-12T11:00:54.425Z,4.40
2018-12-12T11:03:43.948Z,3.90
2018-12-12T11:06:14.033Z,3.87
2018-12-12T11:08:48.397Z,3.77
2018-12-12T11:11:24.176Z,4.63
2018-12-12T11:13:58.311Z,4.10
2018-12-12T11:16:32.674Z,3.80
2018-12-12T11:19:06.914Z,3.63
2018-12-12T11:21:41.250Z,3.40
2018-12-12T11:24:15.413Z,3.27
2018-12-12T11:26:49.705Z,3.50
2018-12-12T11:29:23.960Z,3.63
2018-12-12T11:31:58.349Z,3.17
2018-12-12T11:34:32.734Z,3.43
2018-12-12T11:37:07.941Z,3.00
2018-12-12T11:39:42.253Z,2.73
2018-12-12T11:42:16.826Z,3.20
2018-12-12T11:44:51.229Z,2.60
2018-12-12T11:47:25.441Z,3.00
2018-12-12T11:49:59.895Z,2.93
2018-12-12T11:52:34.256Z,2.13
2018-12-12T11:55:08.448Z,2.63
2018-12-12T11:57:43.077Z,2.27
2018-12-12T12:00:17.344Z,2.03
2018-12-12T12:02:51.708Z,2.40
2018-12-12T12:05:26.010Z,2.40
2018-12-12T12:08:00.169Z,2.33
2018-12-12T12:10:34.301Z,1.83
2018-12-12T12:13:09.981Z,4.97
2018-12-12T12:15:44.353Z,2.00
2018-12-12T12:18:18.701Z,2.80
2018-12-12T12:20:52.976Z,2.00
2018-12-12T12:23:27.701Z,2.00
2018-12-12T12:26:02.161Z,2.60
2018-12-12T12:28:36.438Z,2.17
2018-12-12T12:31:10.815Z,2.10
2018-12-12T12:33:45.375Z,2.40
2018-12-12T12:36:19.556Z,2.70
2018-12-12T12:38:53.780Z,2.77
2018-12-12T12:41:28.308Z,2.80
2018-12-12T12:44:03.153Z,3.13
2018-12-12T12:46:37.522Z,3.63
2018-12-12T12:49:11.763Z,2.63
2018-12-12T12:51:46.008Z,2.90
2018-12-12T12:54:20.239Z,3.00
2018-12-12T12:56:54.372Z,3.40
2018-12-12T12:59:28.736Z,2.93
2018-12-12T13:02:03.112Z,3.20
2018-12-12T13:04:37.360Z,3.33
2018-12-12T13:07:11.523Z,3.47
2018-12-12T13:09:45.796Z,3.23
2018-12-12T13:12:20.171Z,2.70
2018-12-12T13:14:54.611Z,3.00
2018-12-12T13:17:28.960Z,2.83
2018-12-12T13:20:03.336Z,3.13
2018-12-12T13:22:37.560Z,3.20
2018-12-12T13:25:11.986Z,3.37
2018-12-12T13:27:46.295Z,3.47
2018-12-12T13:30:20.676Z,3.53
2018-12-12T13:32:54.972Z,3.63
2018-12-12T13:35:29.452Z,3.60
2018-12-12T13:38:03.865Z,3.67
2018-12-12T13:40:38.233Z,4.10
2018-12-12T13:43:12.686Z,3.77
2018-12-12T13:45:47.046Z,3.47
2018-12-12T13:48:21.315Z,3.80
2018-12-12T13:50:55.592Z,3.50
2018-12-12T13:53:29.928Z,4.13
2018-12-12T13:56:04.485Z,4.27
2018-12-12T13:58:38.772Z,4.37
2018-12-12T14:01:13.041Z,4.27
2018-12-12T14:03:47.344Z,4.03
2018-12-12T14:06:21.501Z,4.53
2018-12-12T14:08:55.833Z,4.33
2018-12-12T14:11:30.157Z,4.20
2018-12-12T14:14:04.440Z,4.50
2018-12-12T14:16:38.717Z,4.33
2018-12-12T14:19:13.042Z,4.50
2018-12-12T14:21:47.345Z,4.00
2018-12-12T14:24:21.654Z,4.27
2018-12-12T14:26:55.841Z,4.10
2018-12-12T14:29:30.104Z,4.30
2018-12-12T14:32:04.833Z,3.70
2018-12-12T14:34:39.122Z,3.50
2018-12-12T14:37:13.295Z,3.73
2018-12-12T14:39:47.654Z,4.07
2018-12-12T14:42:21.917Z,3.73
2018-12-12T14:44:56.101Z,4.00
2018-12-12T14:47:30.404Z,4.20
2018-12-12T14:50:10.040Z,3.63
2018-12-12T14:52:44.317Z,3.67
2018-12-12T14:55:18.738Z,3.90
2018-12-12T14:57:52.976Z,3.70
2018-12-12T15:00:27.344Z,4.63
2018-12-12T15:03:01.789Z,4.53
2018-12-12T15:05:36.112Z,4.57
2018-12-12T15:08:10.449Z,8.00
2018-12-12T15:10:44.752Z,4.47
2018-12-12T15:13:19.023Z,4.70
2018-12-12T15:15:53.336Z,4.40
2018-12-12T15:18:27.560Z,4.30
2018-12-12T15:21:01.893Z,4.00
2018-12-12T15:23:36.173Z,4.20
2018-12-12T15:26:10.529Z,4.33
2018-12-12T15:28:44.725Z,4.10
2018-12-12T15:31:19.032Z,4.70
2018-12-12T15:33:53.192Z,4.50
2018-12-12T15:36:27.584Z,4.63
2018-12-12T15:39:01.836Z,4.80
2018-12-12T15:41:36.208Z,4.30
2018-12-12T15:44:10.536Z,4.57
2018-12-12T15:46:44.799Z,4.60
2018-12-12T15:49:19.140Z,4.97
2018-12-12T15:51:53.332Z,5.33
2018-12-12T15:54:27.660Z,5.20
2018-12-12T15:57:01.900Z,5.10
2018-12-12T15:59:36.077Z,5.10
2018-12-12T16:02:10.421Z,4.93
2018-12-12T16:04:49.030Z,5.30
2018-12-12T16:07:21.082Z,5.17
2018-12-12T16:09:55.535Z,4.90
2018-12-12T16:12:30.364Z,4.90
2018-12-12T16:15:04.992Z,4.77
2018-12-12T16:17:39.297Z,4.80
2018-12-12T16:20:13.624Z,4.57
2018-12-12T16:22:47.881Z,5.27
2018-12-12T16:25:22.164Z,4.60
2018-12-12T16:27:56.311Z,4.53
2018-12-12T16:30:30.597Z,4.47
2018-12-12T16:33:04.989Z,4.80
2018-12-12T16:35:39.330Z,5.27
2018-12-12T16:38:13.452Z,5.53
2018-12-12T16:40:47.865Z,5.20
2018-12-12T16:43:22.116Z,4.80
2018-12-12T16:45:56.608Z,5.10
2018-12-12T16:48:30.849Z,5.33
2018-12-12T16:51:05.417Z,5.10
2018-12-12T16:53:40.195Z,5.83
2018-12-12T16:56:14.776Z,5.20
2018-12-12T16:58:49.060Z,5.13
2018-12-12T17:01:23.240Z,4.87
2018-12-12T17:03:57.662Z,5.43
2018-12-12T17:06:32.073Z,5.13
2018-12-12T17:09:08.175Z,5.50
2018-12-12T17:11:42.949Z,4.80
2018-12-12T17:14:17.191Z,5.87
2018-12-12T17:16:51.673Z,5.03
2018-12-12T17:19:25.844Z,5.60
2018-12-12T17:22:00.120Z,5.23
2018-12-12T17:24:44.405Z,6.00
2018-12-12T17:27:51.892Z,5.20
2018-12-12T17:45:19.752Z,5.47
2018-12-12T17:47:54.259Z,5.53
2018-12-12T17:50:28.588Z,5.53
2018-12-12T17:53:02.903Z,5.57
2018-12-12T17:55:38.244Z,5.70
2018-12-12T17:58:12.919Z,5.57
2018-12-12T18:00:47.200Z,5.93
2018-12-12T18:03:21.577Z,5.63
2018-12-12T18:05:55.903Z,5.40
2018-12-12T18:08:30.256Z,5.90
2018-12-12T18:11:04.814Z,5.53
2018-12-12T18:13:39.157Z,5.83
2018-12-12T18:16:13.500Z,5.20
2018-12-12T18:18:47.748Z,6.23
2018-12-12T18:21:21.931Z,5.70
2018-12-12T18:23:56.269Z,6.13
2018-12-12T18:26:30.707Z,5.53
2018-12-12T18:29:05.108Z,6.67
2018-12-12T18:31:39.632Z,6.17
2018-12-12T18:34:14.057Z,5.73
2018-12-12T18:36:48.561Z,5.90
2018-12-12T18:39:23.008Z,6.00
2018-12-12T18:41:57.464Z,5.80
2018-12-12T18:44:50.319Z,5.63
2018-12-12T18:47:26.906Z,5.90
2018-12-12T18:53:14.088Z,5.17
2018-12-12T19:00:35.832Z,5.70
2018-12-12T19:03:33.731Z,5.33
2018-12-12T19:06:12.485Z,5.50
2018-12-12T19:23:50.374Z,6.80
2018-12-12T19:26:24.699Z,4.90
2018-12-12T19:28:58.940Z,5.07
2018-12-12T19:31:33.135Z,4.23
2018-12-12T19:34:07.477Z,5.00
2018-12-12T19:36:41.804Z,5.10
2018-12-12T19:39:16.152Z,4.97
2018-12-12T19:41:50.400Z,4.83
2018-12-12T19:44:24.588Z,4.93
2018-12-12T19:46:58.941Z,4.67
2018-12-12T19:49:33.233Z,5.20
2018-12-12T19:52:07.606Z,5.43
2018-12-12T19:54:41.894Z,5.83
2018-12-12T19:57:16.336Z,5.13
2018-12-12T19:59:50.524Z,5.30
2018-12-12T20:02:24.887Z,4.43
2018-12-12T20:04:59.374Z,4.43
2018-12-12T20:07:33.612Z,4.07
2018-12-12T20:10:08.061Z,4.63
2018-12-12T20:12:42.265Z,5.73
2018-12-12T20:15:22.169Z,6.47
2018-12-12T20:17:56.357Z,5.30
2018-12-12T20:20:30.681Z,5.23
2018-12-12T20:23:05.229Z,5.73
2018-12-12T20:25:39.536Z,5.93
2018-12-12T20:28:13.816Z,5.03
2018-12-12T20:30:48.188Z,4.70
2018-12-12T20:33:22.404Z,4.93
2018-12-12T20:35:56.712Z,4.87
2018-12-12T20:38:30.973Z,4.97
2018-12-12T20:41:05.326Z,5.57
2018-12-12T20:43:39.730Z,5.30
2018-12-12T20:46:14.124Z,4.77
2018-12-12T20:48:48.313Z,4.70
2018-12-12T20:51:22.689Z,4.53
2018-12-12T20:53:57.068Z,5.33
2018-12-12T20:56:31.373Z,4.40
2018-12-12T20:59:05.793Z,4.57
2018-12-12T21:01:40.152Z,4.50
2018-12-12T21:04:14.601Z,4.60
2018-12-12T21:06:48.896Z,4.40
2018-12-12T21:09:23.144Z,4.00
2018-12-12T21:11:57.633Z,4.50
2018-12-12T21:14:31.883Z,4.27
2018-12-12T21:17:06.272Z,5.03
2018-12-12T21:19:40.604Z,4.30
2018-12-12T21:22:15.108Z,5.35
2018-12-12T21:24:49.406Z,4.87
2018-12-12T21:27:23.892Z,4.97
2018-12-12T21:29:58.191Z,4.40
2018-12-12T21:32:32.621Z,4.00
2018-12-12T21:35:07.652Z,3.87
2018-12-12T21:37:42.283Z,3.90
2018-12-12T21:40:16.757Z,4.43
2018-12-12T21:42:51.137Z,4.53
2018-12-12T21:45:25.424Z,4.10
2018-12-12T21:47:59.641Z,4.33
2018-12-12T21:50:33.957Z,4.00
2018-12-12T21:53:08.249Z,4.90
2018-12-12T21:55:42.550Z,4.93
2018-12-12T21:58:16.964Z,4.50
2018-12-12T22:00:51.432Z,4.90
2018-12-12T22:03:25.888Z,4.40
2018-12-12T22:06:00.480Z,4.07
2018-12-12T22:08:34.721Z,4.53
2018-12-12T22:11:08.977Z,4.33
2018-12-12T22:13:43.291Z,4.03
2018-12-12T22:16:17.585Z,4.80
2018-12-12T22:18:51.916Z,3.80
2018-12-12T22:21:26.336Z,4.00
2018-12-12T22:24:00.796Z,3.67
2018-12-12T22:26:35.200Z,4.03
2018-12-12T22:29:09.551Z,3.57
2018-12-12T22:31:43.847Z,3.50
2018-12-12T22:34:18.004Z,3.40
2018-12-12T22:36:52.192Z,3.33
2018-12-12T22:39:26.481Z,3.17
2018-12-12T22:42:00.948Z,2.90
2018-12-12T22:44:35.140Z,3.00
2018-12-12T22:47:09.392Z,3.00
2018-12-12T22:49:43.616Z,3.17
2018-12-12T22:52:17.793Z,3.53
2018-12-12T22:54:52.124Z,3.20
2018-12-12T22:57:26.598Z,3.10
2018-12-12T23:00:00.908Z,3.03
2018-12-12T23:02:36.384Z,3.00
2018-12-12T23:05:10.869Z,3.10
2018-12-12T23:07:45.144Z,3.67
2018-12-12T23:10:19.397Z,2.83
2018-12-12T23:12:53.909Z,2.90
2018-12-12T23:15:28.076Z,2.60
2018-12-12T23:18:02.536Z,2.93
2018-12-12T23:20:36.862Z,2.90
2018-12-12T23:23:11.068Z,3.03
2018-12-12T23:25:45.573Z,2.57
2018-12-12T23:28:19.900Z,2.30
2018-12-12T23:30:54.148Z,2.87
2018-12-12T23:33:28.518Z,2.30
2018-12-12T23:36:02.834Z,2.60
2018-12-12T23:38:37.309Z,2.57
2018-12-12T23:41:11.751Z,2.40
2018-12-12T23:43:45.989Z,2.60
2018-12-12T23:46:20.341Z,2.57
2018-12-12T23:48:55.008Z,2.70
2018-12-12T23:51:29.184Z,2.40
2018-12-12T23:54:03.383Z,2.73
2018-12-12T23:56:37.784Z,2.70
2018-12-12T23:59:12.236Z,2.70
